createdAt,value
2018-03-06T00:02:19.409Z,23.83
2018-03-06T00:04:47.255Z,21.37
2018-03-06T00:07:14.703Z,23.42
2018-03-06T00:09:42.940Z,25.02
2018-03-06T00:12:10.413Z,25.37
2018-03-06T00:14:37.962Z,22.98
2018-03-06T00:17:09.766Z,25.17
2018-03-06T00:19:37.764Z,22.55
2018-03-06T00:22:06.025Z,21.33
2018-03-06T00:24:33.595Z,21.73
2018-03-06T00:27:03.513Z,21.77
2018-03-06T00:29:33.106Z,23.25
2018-03-06T00:32:00.685Z,25.92
2018-03-06T00:34:29.559Z,23.75
2018-03-06T00:37:01.108Z,22.62
2018-03-06T00:39:28.575Z,22.75
2018-03-06T00:41:57.078Z,23.55
2018-03-06T00:44:25.076Z,28.67
2018-03-06T00:46:52.548Z,25.70
2018-03-06T00:49:20.016Z,21.83
2018-03-06T00:51:47.718Z,24.70
2018-03-06T00:54:15.490Z,27.40
2018-03-06T00:56:43.004Z,25.90
2018-03-06T00:59:10.642Z,22.95
2018-03-06T01:01:38.872Z,28.65
2018-03-06T01:04:06.323Z,22.20
2018-03-06T01:06:33.779Z,23.65
2018-03-06T01:09:02.304Z,29.20
2018-03-06T01:11:29.760Z,27.15
2018-03-06T01:13:57.196Z,27.23
2018-03-06T01:16:24.671Z,28.48
2018-03-06T01:18:52.884Z,23.27
2018-03-06T01:21:20.344Z,21.73
2018-03-06T01:23:48.169Z,29.67
2018-03-06T01:26:16.810Z,31.12
2018-03-06T01:28:44.426Z,26.95
2018-03-06T01:31:12.496Z,36.03
2018-03-06T01:33:39.983Z,31.95
2018-03-06T01:36:07.576Z,32.42
2018-03-06T01:38:35.049Z,29.98
2018-03-06T01:41:03.280Z,29.85
2018-03-06T01:43:31.529Z,31.48
2018-03-06T01:45:59.766Z,30.15
2018-03-06T01:48:27.256Z,37.55
2018-03-06T01:50:54.828Z,30.08
2018-03-06T01:53:22.276Z,30.25
2018-03-06T01:55:53.922Z,31.95
2018-03-06T01:58:21.374Z,31.33
2018-03-06T02:00:48.828Z,30.85
2018-03-06T02:03:16.292Z,31.20
2018-03-06T02:05:43.764Z,30.58
2018-03-06T02:08:11.232Z,31.55
2018-03-06T02:10:39.263Z,30.60
2018-03-06T02:13:06.811Z,34.78
2018-03-06T02:15:35.371Z,29.92
2018-03-06T02:18:02.813Z,33.47
2018-03-06T02:20:30.425Z,39.40
2018-03-06T02:22:57.884Z,37.67
2018-03-06T02:25:25.344Z,31.05
2018-03-06T02:27:52.815Z,31.15
2018-03-06T02:30:20.285Z,34.33
2018-03-06T02:32:47.779Z,29.98
2018-03-06T02:35:16.004Z,28.35
2018-03-06T02:37:43.474Z,34.08
2018-03-06T02:40:10.924Z,29.15
2018-03-06T02:42:38.471Z,25.35
2018-03-06T02:45:05.932Z,30.83
2018-03-06T02:50:07.268Z,31.23
2018-03-06T02:52:34.772Z,24.80
2018-03-06T02:55:02.231Z,25.50
2018-03-06T02:57:29.712Z,30.85
2018-03-06T02:59:57.170Z,28.92
2018-03-06T03:02:25.399Z,37.03
2018-03-06T03:04:53.659Z,28.27
2018-03-06T03:07:21.108Z,25.35
2018-03-06T03:09:48.599Z,38.92
2018-03-06T03:12:16.072Z,30.73
2018-03-06T03:14:43.536Z,34.38
2018-03-06T03:17:10.975Z,33.80
2018-03-06T03:19:38.464Z,28.58
2018-03-06T03:22:05.907Z,32.72
2018-03-06T03:24:33.380Z,33.35
2018-03-06T03:27:00.829Z,29.17
2018-03-06T03:29:29.069Z,33.67
2018-03-06T03:31:56.708Z,36.10
2018-03-06T03:34:24.217Z,35.85
2018-03-06T03:36:51.651Z,37.45
2018-03-06T03:39:19.124Z,32.10
2018-03-06T03:41:46.564Z,37.13
2018-03-06T03:44:14.107Z,36.40
2018-03-06T03:46:41.552Z,38.75
2018-03-06T03:49:09.033Z,37.50
2018-03-06T03:51:36.489Z,45.38
2018-03-06T03:54:03.981Z,36.45
2018-03-06T03:56:32.295Z,44.47
2018-03-06T03:58:59.773Z,41.67
2018-03-06T04:01:28.468Z,40.83
2018-03-06T04:03:55.929Z,45.33
2018-03-06T04:06:23.378Z,42.72
2018-03-06T04:08:59.490Z,40.08
2018-03-06T04:11:26.948Z,44.78
2018-03-06T04:13:54.417Z,45.03
2018-03-06T04:16:21.886Z,39.55
2018-03-06T04:18:49.332Z,45.78
2018-03-06T04:21:16.798Z,42.55
2018-03-06T04:23:44.244Z,45.30
2018-03-06T04:26:11.722Z,46.70
2018-03-06T04:28:39.173Z,58.08
2018-03-06T04:31:06.679Z,41.63
2018-03-06T04:33:34.267Z,48.25
2018-03-06T04:36:01.830Z,51.30
2018-03-06T04:38:29.286Z,43.90
2018-03-06T04:40:56.770Z,45.88
2018-03-06T04:43:24.304Z,43.10
2018-03-06T04:45:51.841Z,52.13
2018-03-06T04:48:19.522Z,47.28
2018-03-06T04:50:46.974Z,55.83
2018-03-06T04:53:14.430Z,58.85
2018-03-06T04:55:41.891Z,52.42
2018-03-06T04:58:09.347Z,55.15
2018-03-06T05:00:36.807Z,55.40
2018-03-06T05:03:04.291Z,51.80
2018-03-06T05:05:31.757Z,58.75
2018-03-06T05:07:59.188Z,58.72
2018-03-06T05:10:26.642Z,57.30
2018-03-06T05:12:54.120Z,61.13
2018-03-06T05:15:21.556Z,67.97
2018-03-06T05:17:49.035Z,66.18
2018-03-06T05:20:17.259Z,62.20
2018-03-06T05:22:44.744Z,65.47
2018-03-06T05:25:12.206Z,66.50
2018-03-06T05:27:39.719Z,67.90
2018-03-06T05:30:07.157Z,69.30
2018-03-06T05:32:34.628Z,67.05
2018-03-06T05:35:02.070Z,69.40
2018-03-06T05:37:29.524Z,75.35
2018-03-06T05:39:57.044Z,73.57
2018-03-06T05:42:24.534Z,74.82
2018-03-06T05:44:52.779Z,70.47
2018-03-06T05:47:20.264Z,74.05
2018-03-06T05:49:48.515Z,69.28
2018-03-06T05:52:15.979Z,71.60
2018-03-06T05:54:43.450Z,76.30
2018-03-06T05:57:11.658Z,68.07
2018-03-06T05:59:39.140Z,77.95
2018-03-06T06:02:06.628Z,79.72
2018-03-06T06:04:34.103Z,76.80
2018-03-06T06:07:01.545Z,75.90
2018-03-06T06:09:29.843Z,77.75
2018-03-06T06:11:57.295Z,81.37
2018-03-06T06:14:24.756Z,78.80
2018-03-06T06:16:52.329Z,74.18
2018-03-06T06:19:19.849Z,68.50
2018-03-06T06:21:47.278Z,80.95
2018-03-06T06:24:14.767Z,70.93
2018-03-06T06:26:42.346Z,77.40
2018-03-06T06:29:09.778Z,63.00
2018-03-06T06:31:37.287Z,73.93
2018-03-06T06:34:04.798Z,79.62
2018-03-06T06:36:32.362Z,66.05
2018-03-06T06:38:59.803Z,65.97
2018-03-06T06:41:28.069Z,69.60
2018-03-06T06:43:56.244Z,82.53
2018-03-06T06:46:24.471Z,64.55
2018-03-06T06:48:51.923Z,67.10
2018-03-06T06:51:19.608Z,63.10
2018-03-06T06:53:47.085Z,69.60
2018-03-06T06:56:14.553Z,72.35
2018-03-06T06:58:42.802Z,68.18
2018-03-06T07:01:10.242Z,63.15
2018-03-06T07:03:37.703Z,68.87
2018-03-06T07:06:05.183Z,70.37
2018-03-06T07:08:32.629Z,71.40
2018-03-06T07:11:00.153Z,72.57
2018-03-06T07:13:27.637Z,71.28
2018-03-06T07:15:55.184Z,81.50
2018-03-06T07:18:22.649Z,64.20
2018-03-06T07:20:50.136Z,74.55
2018-03-06T07:23:18.381Z,83.70
2018-03-06T07:25:45.851Z,78.53
2018-03-06T07:28:13.311Z,76.45
2018-03-06T07:30:40.779Z,75.80
2018-03-06T07:33:09.019Z,76.50
2018-03-06T07:35:36.479Z,68.78
2018-03-06T07:38:03.998Z,71.85
2018-03-06T07:40:43.552Z,74.30
2018-03-06T07:43:11.073Z,70.30
2018-03-06T07:45:39.315Z,67.05
2018-03-06T07:48:08.150Z,67.82
2018-03-06T07:50:35.631Z,77.72
2018-03-06T07:53:03.075Z,82.60
2018-03-06T07:55:30.997Z,78.78
2018-03-06T07:57:59.263Z,71.40
2018-03-06T08:00:26.759Z,78.47
2018-03-06T08:02:54.229Z,71.47
2018-03-06T08:05:21.706Z,80.40
2018-03-06T08:07:49.145Z,73.62
2018-03-06T08:10:16.615Z,71.68
2018-03-06T08:12:44.146Z,71.18
2018-03-06T08:15:11.633Z,70.55
2018-03-06T08:17:39.146Z,74.87
2018-03-06T08:20:06.616Z,71.50
2018-03-06T08:22:34.112Z,80.38
2018-03-06T08:25:01.552Z,72.03
2018-03-06T08:27:29.034Z,62.22
2018-03-06T08:29:56.505Z,90.97
2018-03-06T08:32:23.950Z,79.15
2018-03-06T08:34:51.392Z,65.05
2018-03-06T08:37:18.933Z,75.40
2018-03-06T08:39:46.396Z,73.07
2018-03-06T08:42:13.872Z,70.65
2018-03-06T08:44:41.334Z,84.68
2018-03-06T08:47:08.787Z,77.70
2018-03-06T08:49:36.302Z,68.75
2018-03-06T08:52:03.758Z,76.00
2018-03-06T08:54:31.219Z,80.28
2018-03-06T08:56:58.729Z,86.87
2018-03-06T08:59:27.021Z,74.70
2018-03-06T09:01:54.518Z,71.35
2018-03-06T09:04:21.991Z,72.15
2018-03-06T09:06:49.462Z,75.43
2018-03-06T09:09:16.957Z,76.37
2018-03-06T09:11:44.440Z,73.40
2018-03-06T09:14:11.970Z,91.18
2018-03-06T09:16:39.416Z,82.53
2018-03-06T09:19:06.919Z,81.43
2018-03-06T09:21:34.371Z,79.20
2018-03-06T09:24:02.049Z,74.82
2018-03-06T09:26:29.531Z,72.20
2018-03-06T09:28:57.819Z,76.57
2018-03-06T09:31:25.856Z,80.72
2018-03-06T09:33:53.334Z,77.32
2018-03-06T09:36:20.791Z,78.57
2018-03-06T09:38:48.996Z,84.83
2018-03-06T09:41:16.468Z,80.47
2018-03-06T09:43:43.976Z,82.60
2018-03-06T09:46:11.442Z,78.20
2018-03-06T09:48:39.678Z,74.62
2018-03-06T09:51:07.171Z,77.00
2018-03-06T09:53:35.379Z,76.53
2018-03-06T09:56:02.855Z,74.40
2018-03-06T09:58:30.336Z,69.83
2018-03-06T10:00:57.864Z,76.30
2018-03-06T10:03:25.310Z,71.93
2018-03-06T10:05:52.777Z,76.10
2018-03-06T10:08:20.240Z,79.23
2018-03-06T10:10:47.710Z,69.27
2018-03-06T10:13:15.931Z,81.30
2018-03-06T10:15:43.460Z,94.23
2018-03-06T10:18:11.700Z,73.17
2018-03-06T10:20:39.972Z,72.20
2018-03-06T10:23:07.427Z,75.83
2018-03-06T10:25:34.882Z,78.43
2018-03-06T10:28:03.067Z,74.47
2018-03-06T10:30:30.511Z,77.37
2018-03-06T10:32:58.005Z,74.43
2018-03-06T10:35:26.176Z,72.83
2018-03-06T10:37:53.696Z,81.30
2018-03-06T10:40:21.165Z,70.67
2018-03-06T10:42:48.803Z,74.40
2018-03-06T10:45:16.247Z,76.87
2018-03-06T10:47:43.925Z,81.87
2018-03-06T10:50:11.355Z,71.63
2018-03-06T10:52:38.804Z,82.37
2018-03-06T10:55:06.392Z,82.33
2018-03-06T10:57:33.884Z,79.83
2018-03-06T11:00:01.337Z,72.10
2018-03-06T11:02:31.576Z,74.00
2018-03-06T11:05:00.010Z,71.60
2018-03-06T11:07:27.496Z,75.47
2018-03-06T11:09:55.021Z,74.50
2018-03-06T11:12:22.461Z,76.37
2018-03-06T11:14:49.936Z,75.40
2018-03-06T11:17:18.063Z,72.87
2018-03-06T11:19:46.328Z,73.43
2018-03-06T11:22:14.549Z,69.00
2018-03-06T11:24:42.377Z,75.67
2018-03-06T11:27:10.326Z,69.10
2018-03-06T11:29:37.812Z,67.50
2018-03-06T11:32:11.092Z,75.03
2018-03-06T11:34:40.450Z,72.27
2018-03-06T11:37:07.925Z,79.93
2018-03-06T11:39:41.360Z,74.00
2018-03-06T11:42:08.830Z,68.77
2018-03-06T11:44:44.666Z,75.13
2018-03-06T11:47:13.081Z,71.33
2018-03-06T11:49:40.536Z,76.50
2018-03-06T11:52:08.195Z,74.43
2018-03-06T11:54:35.625Z,70.63
2018-03-06T11:57:03.106Z,74.47
2018-03-06T11:59:30.540Z,76.00
2018-03-06T12:01:58.079Z,70.03
2018-03-06T12:04:25.469Z,84.73
2018-03-06T12:06:52.939Z,74.43
2018-03-06T12:09:20.433Z,70.47
2018-03-06T12:11:48.013Z,69.67
2018-03-06T12:14:16.318Z,75.90
2018-03-06T12:16:43.820Z,80.17
2018-03-06T12:19:11.308Z,77.97
2018-03-06T12:21:38.802Z,77.60
2018-03-06T12:24:06.338Z,75.63
2018-03-06T12:26:33.790Z,73.03
2018-03-06T12:29:01.255Z,78.20
2018-03-06T12:31:28.715Z,80.10
2018-03-06T12:33:56.169Z,75.87
2018-03-06T12:36:23.649Z,84.07
2018-03-06T12:38:51.947Z,79.77
2018-03-06T12:41:19.400Z,73.80
2018-03-06T12:43:46.864Z,73.70
2018-03-06T12:46:15.094Z,72.73
2018-03-06T12:48:42.559Z,75.50
2018-03-06T12:51:10.021Z,77.70
2018-03-06T12:53:37.516Z,77.73
2018-03-06T12:56:05.787Z,68.80
2018-03-06T12:58:34.088Z,77.80
2018-03-06T13:01:01.554Z,69.93
2018-03-06T13:03:29.051Z,68.43
2018-03-06T13:05:56.540Z,73.17
2018-03-06T13:08:24.774Z,79.97
2018-03-06T13:10:52.377Z,76.33
2018-03-06T13:13:20.592Z,70.77
2018-03-06T13:15:48.079Z,84.93
2018-03-06T13:18:15.511Z,75.40
2018-03-06T13:20:43.024Z,81.43
2018-03-06T13:23:11.284Z,74.90
2018-03-06T13:25:38.760Z,80.20
2018-03-06T13:28:06.975Z,72.50
2018-03-06T13:30:34.436Z,69.30
2018-03-06T13:33:01.900Z,73.47
2018-03-06T13:35:29.351Z,73.83
2018-03-06T13:37:56.829Z,66.63
2018-03-06T13:40:24.288Z,69.53
2018-03-06T13:42:55.735Z,69.00
2018-03-06T13:45:23.228Z,73.43
2018-03-06T13:47:50.717Z,69.17
2018-03-06T13:50:18.195Z,72.57
2018-03-06T13:52:46.828Z,62.93
2018-03-06T13:55:14.278Z,70.87
2018-03-06T13:57:42.696Z,66.60
2018-03-06T14:00:10.128Z,67.30
2018-03-06T14:02:37.620Z,64.10
2018-03-06T14:05:05.168Z,63.57
2018-03-06T14:07:38.037Z,59.30
2018-03-06T14:10:06.351Z,62.23
2018-03-06T14:12:33.875Z,70.33
2018-03-06T14:15:01.350Z,71.27
2018-03-06T14:17:28.820Z,53.67
2018-03-06T14:19:56.360Z,62.80
2018-03-06T14:22:23.820Z,60.17
2018-03-06T14:24:51.289Z,71.87
2018-03-06T14:27:18.741Z,67.67
2018-03-06T14:29:46.212Z,65.10
2018-03-06T14:32:13.702Z,61.60
2018-03-06T14:34:41.127Z,61.37
2018-03-06T14:37:08.588Z,61.30
2018-03-06T14:39:36.045Z,57.60
2018-03-06T14:42:04.271Z,59.47
2018-03-06T14:44:31.748Z,61.30
2018-03-06T14:46:59.204Z,51.17
2018-03-06T14:49:26.703Z,62.07
2018-03-06T14:51:54.922Z,60.63
2018-03-06T14:54:22.401Z,50.60
2018-03-06T14:56:49.877Z,57.63
2018-03-06T14:59:18.113Z,53.80
2018-03-06T15:01:45.620Z,51.13
2018-03-06T15:04:13.828Z,59.00
2018-03-06T15:06:41.315Z,60.10
2018-03-06T15:09:08.776Z,53.70
2018-03-06T15:11:36.235Z,54.83
2018-03-06T15:14:03.694Z,61.37
2018-03-06T15:16:31.165Z,54.47
2018-03-06T15:18:59.481Z,60.10
2018-03-06T15:21:27.041Z,63.47
2018-03-06T15:23:54.494Z,55.80
2018-03-06T15:26:21.954Z,55.17
2018-03-06T15:28:50.148Z,63.30
2018-03-06T15:31:17.674Z,62.87
2018-03-06T15:33:45.125Z,54.33
2018-03-06T15:36:12.681Z,57.17
2018-03-06T15:38:40.154Z,53.30
2018-03-06T15:41:07.617Z,57.03
2018-03-06T15:43:35.062Z,57.10
2018-03-06T15:46:02.686Z,56.90
2018-03-06T15:48:30.884Z,59.70
2018-03-06T15:50:58.383Z,55.27
2018-03-06T15:53:25.816Z,54.67
2018-03-06T15:55:53.312Z,52.23
2018-03-06T15:58:20.775Z,52.50
2018-03-06T16:00:48.997Z,52.27
2018-03-06T16:03:16.506Z,51.20
2018-03-06T16:05:43.963Z,54.70
2018-03-06T16:08:11.437Z,52.00
2018-03-06T16:10:39.744Z,46.73
2018-03-06T16:13:07.204Z,51.77
2018-03-06T16:15:34.745Z,50.47
2018-03-06T16:18:02.226Z,46.43
2018-03-06T16:20:29.687Z,51.27
2018-03-06T16:22:57.140Z,49.43
2018-03-06T16:25:24.715Z,52.23
2018-03-06T16:27:52.182Z,45.07
2018-03-06T16:30:19.725Z,49.33
2018-03-06T16:32:47.162Z,49.53
2018-03-06T16:35:15.128Z,46.70
2018-03-06T16:37:42.592Z,51.37
2018-03-06T16:40:10.068Z,51.17
2018-03-06T16:42:37.503Z,50.43
2018-03-06T16:45:04.969Z,50.23
2018-03-06T16:47:32.420Z,48.73
2018-03-06T16:49:59.919Z,49.30
2018-03-06T16:52:28.150Z,54.03
2018-03-06T16:54:55.624Z,55.93
2018-03-06T16:57:23.148Z,49.93
2018-03-06T16:59:50.624Z,51.87
2018-03-06T17:02:18.079Z,53.03
2018-03-06T17:04:45.560Z,51.63
2018-03-06T17:07:13.020Z,53.90
2018-03-06T17:09:40.517Z,51.47
2018-03-06T17:12:08.248Z,54.50
2018-03-06T17:14:35.698Z,57.93
2018-03-06T17:17:03.172Z,53.43
2018-03-06T17:19:31.399Z,60.23
2018-03-06T17:21:58.863Z,57.20
2018-03-06T17:24:26.340Z,56.63
2018-03-06T17:26:54.555Z,57.00
2018-03-06T17:29:22.027Z,53.10
2018-03-06T17:31:49.483Z,55.90
2018-03-06T17:34:16.964Z,61.20
2018-03-06T17:36:44.428Z,55.43
2018-03-06T17:39:11.912Z,61.17
2018-03-06T17:41:40.191Z,58.60
2018-03-06T17:44:08.442Z,58.42
2018-03-06T17:46:35.896Z,62.85
2018-03-06T17:49:03.379Z,60.88
2018-03-06T17:51:30.828Z,61.63
2018-03-06T17:53:58.317Z,58.03
2018-03-06T17:56:26.063Z,57.78
2018-03-06T17:58:53.624Z,59.97
2018-03-06T18:01:21.113Z,66.28
2018-03-06T18:03:48.576Z,54.70
2018-03-06T18:06:16.064Z,58.47
2018-03-06T18:08:45.053Z,59.70
2018-03-06T18:11:13.328Z,59.95
2018-03-06T18:13:41.550Z,70.30
2018-03-06T18:16:09.096Z,65.25
2018-03-06T18:18:36.540Z,67.05
2018-03-06T18:21:04.102Z,62.55
2018-03-06T18:23:31.566Z,60.00
2018-03-06T18:25:59.036Z,65.32
2018-03-06T18:28:26.487Z,69.60
2018-03-06T18:30:54.106Z,63.17
2018-03-06T18:33:22.414Z,61.65
2018-03-06T18:35:49.923Z,63.95
2018-03-06T18:38:17.373Z,65.47
2018-03-06T18:40:44.864Z,71.25
2018-03-06T18:43:13.136Z,73.60
2018-03-06T18:45:41.360Z,65.68
2018-03-06T18:48:08.812Z,72.18
2018-03-06T18:50:48.107Z,67.75
2018-03-06T18:53:15.603Z,63.13
2018-03-06T18:55:43.039Z,73.43
2018-03-06T18:58:10.568Z,68.53
2018-03-06T19:03:51.586Z,66.40
2018-03-06T19:06:23.981Z,70.85
2018-03-06T19:08:51.520Z,73.90
2018-03-06T19:11:18.987Z,67.45
2018-03-06T19:13:46.452Z,68.65
2018-03-06T19:16:13.913Z,80.50
2018-03-06T19:18:41.398Z,76.53
2018-03-06T19:21:08.859Z,71.32
2018-03-06T19:23:36.346Z,74.93
2018-03-06T19:26:04.551Z,71.55
2018-03-06T19:28:32.051Z,77.03
2018-03-06T19:30:59.589Z,72.55
2018-03-06T19:33:26.995Z,71.40
2018-03-06T19:35:54.464Z,72.30
2018-03-06T19:38:21.919Z,81.07
2018-03-06T19:40:50.190Z,69.40
2018-03-06T19:43:17.639Z,71.10
2018-03-06T19:45:45.143Z,67.32
2018-03-06T19:48:12.668Z,75.25
2018-03-06T19:50:40.224Z,73.62
2018-03-06T19:53:07.680Z,77.87
2018-03-06T19:55:35.186Z,73.28
2018-03-06T19:58:02.843Z,80.50
2018-03-06T20:00:30.286Z,78.22
2018-03-06T20:02:57.768Z,72.78
2018-03-06T20:05:26.005Z,70.97
2018-03-06T20:07:53.490Z,80.65
2018-03-06T20:10:21.237Z,72.30
2018-03-06T20:12:48.759Z,89.80
2018-03-06T20:15:17.852Z,82.03
2018-03-06T20:17:45.342Z,80.18
2018-03-06T20:20:12.786Z,74.87
2018-03-06T20:22:40.340Z,74.87
2018-03-06T20:25:14.294Z,73.03
2018-03-06T20:27:41.861Z,80.65
2018-03-06T20:30:09.397Z,75.18
2018-03-06T20:32:42.595Z,84.82
2018-03-06T20:35:10.981Z,72.65
2018-03-06T20:37:38.631Z,74.82
2018-03-06T20:40:11.708Z,77.35
2018-03-06T20:42:39.235Z,76.18
2018-03-06T20:45:06.739Z,77.53
2018-03-06T20:47:35.111Z,82.25
2018-03-06T20:50:02.770Z,78.12
2018-03-06T20:52:30.388Z,89.97
2018-03-06T20:55:03.626Z,79.30
2018-03-06T20:57:31.166Z,75.97
2018-03-06T20:59:58.663Z,77.22
2018-03-06T21:02:26.129Z,81.40
2018-03-06T21:04:53.631Z,75.62
2018-03-06T21:07:21.917Z,81.50
2018-03-06T21:09:49.389Z,88.07
2018-03-06T21:12:16.828Z,83.87
2018-03-06T21:14:44.313Z,77.95
2018-03-06T21:17:11.792Z,82.72
2018-03-06T21:19:39.268Z,86.35
2018-03-06T21:22:06.755Z,78.62
2018-03-06T21:24:34.281Z,82.60
2018-03-06T21:27:01.741Z,79.53
2018-03-06T21:29:29.211Z,86.55
2018-03-06T21:31:57.445Z,74.35
2018-03-06T21:34:25.829Z,85.47
2018-03-06T21:36:53.354Z,80.18
2018-03-06T21:39:21.595Z,80.57
2018-03-06T21:41:49.074Z,86.85
2018-03-06T21:44:17.306Z,82.20
2018-03-06T21:46:44.809Z,83.55
2018-03-06T21:49:13.071Z,78.50
2018-03-06T21:51:40.528Z,76.45
2018-03-06T21:54:08.027Z,76.10
2018-03-06T21:56:36.263Z,70.82
2018-03-06T21:59:03.741Z,77.45
2018-03-06T22:01:31.984Z,84.65
2018-03-06T22:03:59.439Z,73.03
2018-03-06T22:06:26.918Z,70.45
2018-03-06T22:08:54.376Z,74.50
2018-03-06T22:11:22.642Z,73.70
2018-03-06T22:13:50.138Z,72.60
2018-03-06T22:16:17.572Z,77.07
2018-03-06T22:18:45.854Z,78.28
2018-03-06T22:21:13.300Z,68.35
2018-03-06T22:23:41.556Z,68.82
2018-03-06T22:26:09.013Z,70.47
2018-03-06T22:28:36.512Z,70.60
2018-03-06T22:31:03.949Z,79.07
2018-03-06T22:33:32.284Z,74.37
2018-03-06T22:35:59.716Z,68.80
2018-03-06T22:38:27.269Z,64.50
2018-03-06T22:40:55.458Z,69.37
2018-03-06T22:43:22.911Z,61.55
2018-03-06T22:45:51.018Z,67.97
2018-03-06T22:48:18.485Z,61.20
2018-03-06T22:50:46.432Z,59.65
2018-03-06T22:53:13.929Z,62.25
2018-03-06T22:55:41.377Z,60.92
2018-03-06T22:58:09.621Z,57.00
2018-03-06T23:00:37.084Z,51.63
2018-03-06T23:03:04.596Z,63.83
2018-03-06T23:05:32.099Z,60.45
2018-03-06T23:07:59.566Z,59.53
2018-03-06T23:10:27.793Z,60.08
2018-03-06T23:12:55.304Z,52.90
2018-03-06T23:15:23.536Z,57.28
2018-03-06T23:17:51.005Z,58.87
2018-03-06T23:20:18.528Z,53.47
2018-03-06T23:22:45.975Z,59.00
2018-03-06T23:25:13.436Z,52.25
2018-03-06T23:27:40.912Z,57.92
2018-03-06T23:30:08.509Z,57.13
2018-03-06T23:32:35.998Z,53.30
2018-03-06T23:35:03.468Z,51.90
2018-03-06T23:37:31.152Z,58.38
2018-03-06T23:39:58.612Z,46.70
2018-03-06T23:42:26.208Z,53.28
2018-03-06T23:44:57.738Z,46.78
2018-03-06T23:47:25.284Z,51.83
2018-03-06T23:49:53.362Z,45.95
2018-03-06T23:52:21.635Z,45.83
2018-03-06T23:54:49.076Z,51.78
2018-03-06T23:57:16.647Z,47.00
2018-03-06T23:59:44.089Z,43.10
